sensor_id;sensor_type;location;lat;lon;timestamp;P1;durP1;ratioP1;P2;durP2;ratioP2
1328;SDS011;658;48.820;9.354;2023-03-14T00:00:24;0.57;;;0.50;;
1328;SDS011;658;48.820;9.354;2023-03-14T00:04:25;0.80;;;0.40;;
1328;SDS011;658;48.820;9.354;2023-03-14T00:08:25;2.00;;;0.53;;
1328;SDS011;658;48.820;9.354;2023-03-14T00:12:26;0.67;;;0.60;;
1328;SDS011;658;48.820;9.354;2023-03-14T00:16:27;0.60;;;0.60;;
1328;SDS011;658;48.820;9.354;2023-03-14T00:20:27;1.03;;;0.50;;
1328;SDS011;658;48.820;9.354;2023-03-14T00:24:28;0.50;;;0.50;;
1328;SDS011;658;48.820;9.354;2023-03-14T00:28:29;1.23;;;0.60;;
1328;SDS011;658;48.820;9.354;2023-03-14T00:32:30;0.57;;;0.57;;
1328;SDS011;658;48.820;9.354;2023-03-14T00:36:30;0.67;;;0.67;;
1328;SDS011;658;48.820;9.354;2023-03-14T00:40:31;0.67;;;0.50;;
1328;SDS011;658;48.820;9.354;2023-03-14T00:44:31;0.70;;;0.60;;
1328;SDS011;658;48.820;9.354;2023-03-14T00:48:34;0.70;;;0.70;;
1328;SDS011;658;48.820;9.354;2023-03-14T00:52:35;1.00;;;0.40;;
1328;SDS011;658;48.820;9.354;2023-03-14T00:56:36;0.50;;;0.50;;
1328;SDS011;658;48.820;9.354;2023-03-14T01:00:36;1.00;;;0.50;;
1328;SDS011;658;48.820;9.354;2023-03-14T01:04:37;0.77;;;0.60;;
1328;SDS011;658;48.820;9.354;2023-03-14T01:08:39;0.50;;;0.50;;
1328;SDS011;658;48.820;9.354;2023-03-14T01:12:40;0.63;;;0.50;;
1328;SDS011;658;48.820;9.354;2023-03-14T01:16:40;0.50;;;0.40;;
1328;SDS011;658;48.820;9.354;2023-03-14T01:20:41;0.40;;;0.40;;
1328;SDS011;658;48.820;9.354;2023-03-14T01:24:42;0.43;;;0.40;;
1328;SDS011;658;48.820;9.354;2023-03-14T01:28:42;0.50;;;0.50;;
1328;SDS011;658;48.820;9.354;2023-03-14T01:32:43;0.50;;;0.40;;
1328;SDS011;658;48.820;9.354;2023-03-14T01:36:43;0.40;;;0.40;;
1328;SDS011;658;48.820;9.354;2023-03-14T01:40:44;0.50;;;0.40;;
1328;SDS011;658;48.820;9.354;2023-03-14T01:44:49;0.47;;;0.40;;
1328;SDS011;658;48.820;9.354;2023-03-14T01:48:59;0.40;;;0.40;;
1328;SDS011;658;48.820;9.354;2023-03-14T01:53:03;0.50;;;0.50;;
1328;SDS011;658;48.820;9.354;2023-03-14T01:57:11;0.50;;;0.50;;
1328;SDS011;658;48.820;9.354;2023-03-14T02:01:22;0.70;;;0.50;;
1328;SDS011;658;48.820;9.354;2023-03-14T02:05:26;0.40;;;0.40;;
1328;SDS011;658;48.820;9.354;2023-03-14T02:09:32;0.97;;;0.60;;
1328;SDS011;658;48.820;9.354;2023-03-14T02:13:33;0.50;;;0.50;;
1328;SDS011;658;48.820;9.354;2023-03-14T02:17:34;0.40;;;0.40;;
1328;SDS011;658;48.820;9.354;2023-03-14T02:21:38;1.30;;;0.47;;
1328;SDS011;658;48.820;9.354;2023-03-14T02:26:15;0.40;;;0.40;;
1328;SDS011;658;48.820;9.354;2023-03-14T02:30:27;0.57;;;0.50;;
1328;SDS011;658;48.820;9.354;2023-03-14T02:34:29;0.40;;;0.30;;
1328;SDS011;658;48.820;9.354;2023-03-14T02:39:07;0.40;;;0.40;;
1328;SDS011;658;48.820;9.354;2023-03-14T02:43:06;0.50;;;0.30;;
1328;SDS011;658;48.820;9.354;2023-03-14T02:47:06;0.40;;;0.40;;
1328;SDS011;658;48.820;9.354;2023-03-14T02:51:07;0.77;;;0.40;;
1328;SDS011;658;48.820;9.354;2023-03-14T02:55:08;0.43;;;0.30;;
1328;SDS011;658;48.820;9.354;2023-03-14T02:59:09;0.70;;;0.50;;
1328;SDS011;658;48.820;9.354;2023-03-14T03:03:10;0.60;;;0.40;;
1328;SDS011;658;48.820;9.354;2023-03-14T03:07:10;0.50;;;0.50;;
1328;SDS011;658;48.820;9.354;2023-03-14T03:11:11;0.50;;;0.50;;
1328;SDS011;658;48.820;9.354;2023-03-14T03:15:12;0.50;;;0.40;;
1328;SDS011;658;48.820;9.354;2023-03-14T03:19:12;0.40;;;0.40;;
1328;SDS011;658;48.820;9.354;2023-03-14T03:23:13;0.40;;;0.40;;
1328;SDS011;658;48.820;9.354;2023-03-14T03:27:14;0.83;;;0.40;;
1328;SDS011;658;48.820;9.354;2023-03-14T03:31:14;0.30;;;0.30;;
1328;SDS011;658;48.820;9.354;2023-03-14T03:35:15;0.83;;;0.40;;
1328;SDS011;658;48.820;9.354;2023-03-14T03:39:16;0.40;;;0.40;;
1328;SDS011;658;48.820;9.354;2023-03-14T03:43:16;0.30;;;0.27;;
1328;SDS011;658;48.820;9.354;2023-03-14T03:47:18;0.70;;;0.43;;
1328;SDS011;658;48.820;9.354;2023-03-14T03:51:18;0.60;;;0.40;;
1328;SDS011;658;48.820;9.354;2023-03-14T03:55:19;0.63;;;0.40;;
1328;SDS011;658;48.820;9.354;2023-03-14T03:59:20;0.40;;;0.30;;
1328;SDS011;658;48.820;9.354;2023-03-14T04:03:21;0.50;;;0.30;;
1328;SDS011;658;48.820;9.354;2023-03-14T04:07:21;0.70;;;0.40;;
1328;SDS011;658;48.820;9.354;2023-03-14T04:11:22;0.40;;;0.40;;
1328;SDS011;658;48.820;9.354;2023-03-14T04:15:22;1.13;;;0.37;;
1328;SDS011;658;48.820;9.354;2023-03-14T04:19:23;1.47;;;0.30;;
1328;SDS011;658;48.820;9.354;2023-03-14T04:23:24;0.77;;;0.40;;
1328;SDS011;658;48.820;9.354;2023-03-14T04:27:25;0.50;;;0.50;;
1328;SDS011;658;48.820;9.354;2023-03-14T04:31:25;0.40;;;0.40;;
1328;SDS011;658;48.820;9.354;2023-03-14T04:35:26;0.40;;;0.30;;
1328;SDS011;658;48.820;9.354;2023-03-14T04:39:27;0.40;;;0.40;;
1328;SDS011;658;48.820;9.354;2023-03-14T04:43:27;0.30;;;0.30;;
1328;SDS011;658;48.820;9.354;2023-03-14T04:47:28;0.60;;;0.50;;
1328;SDS011;658;48.820;9.354;2023-03-14T04:51:29;0.60;;;0.50;;
1328;SDS011;658;48.820;9.354;2023-03-14T04:55:29;0.40;;;0.30;;
1328;SDS011;658;48.820;9.354;2023-03-14T04:59:32;0.40;;;0.40;;
1328;SDS011;658;48.820;9.354;2023-03-14T05:03:32;0.50;;;0.40;;
1328;SDS011;658;48.820;9.354;2023-03-14T05:07:33;0.40;;;0.40;;
1328;SDS011;658;48.820;9.354;2023-03-14T05:11:33;0.70;;;0.60;;
1328;SDS011;658;48.820;9.354;2023-03-14T05:15:34;0.50;;;0.40;;
1328;SDS011;658;48.820;9.354;2023-03-14T05:19:35;0.50;;;0.30;;
1328;SDS011;658;48.820;9.354;2023-03-14T05:23:35;0.80;;;0.30;;
1328;SDS011;658;48.820;9.354;2023-03-14T05:27:36;0.40;;;0.40;;
1328;SDS011;658;48.820;9.354;2023-03-14T05:31:36;0.40;;;0.33;;
1328;SDS011;658;48.820;9.354;2023-03-14T05:35:37;0.50;;;0.33;;
1328;SDS011;658;48.820;9.354;2023-03-14T05:39:38;0.30;;;0.30;;
1328;SDS011;658;48.820;9.354;2023-03-14T05:43:38;0.60;;;0.50;;
1328;SDS011;658;48.820;9.354;2023-03-14T05:47:39;1.70;;;0.60;;
1328;SDS011;658;48.820;9.354;2023-03-14T05:51:40;0.70;;;0.40;;
1328;SDS011;658;48.820;9.354;2023-03-14T05:55:40;1.37;;;0.60;;
1328;SDS011;658;48.820;9.354;2023-03-14T05:59:41;0.50;;;0.50;;
1328;SDS011;658;48.820;9.354;2023-03-14T06:03:41;0.70;;;0.50;;
1328;SDS011;658;48.820;9.354;2023-03-14T06:07:42;1.77;;;0.50;;
1328;SDS011;658;48.820;9.354;2023-03-14T06:11:43;0.50;;;0.50;;
1328;SDS011;658;48.820;9.354;2023-03-14T06:15:43;0.50;;;0.50;;
1328;SDS011;658;48.820;9.354;2023-03-14T06:19:44;2.83;;;0.63;;
1328;SDS011;658;48.820;9.354;2023-03-14T06:23:45;0.57;;;0.33;;
1328;SDS011;658;48.820;9.354;2023-03-14T06:27:45;2.10;;;0.43;;
1328;SDS011;658;48.820;9.354;2023-03-14T06:31:46;0.70;;;0.40;;
1328;SDS011;658;48.820;9.354;2023-03-14T06:35:46;0.50;;;0.50;;
1328;SDS011;658;48.820;9.354;2023-03-14T06:39:47;0.93;;;0.50;;
1328;SDS011;658;48.820;9.354;2023-03-14T06:43:48;1.47;;;0.90;;
1328;SDS011;658;48.820;9.354;2023-03-14T06:47:48;1.60;;;0.70;;
1328;SDS011;658;48.820;9.354;2023-03-14T06:51:49;1.80;;;0.83;;
1328;SDS011;658;48.820;9.354;2023-03-14T06:55:49;1.40;;;0.80;;
1328;SDS011;658;48.820;9.354;2023-03-14T06:59:50;0.80;;;0.77;;
1328;SDS011;658;48.820;9.354;2023-03-14T07:03:50;1.20;;;0.83;;
1328;SDS011;658;48.820;9.354;2023-03-14T07:07:51;1.87;;;0.93;;
1328;SDS011;658;48.820;9.354;2023-03-14T07:11:52;1.23;;;0.67;;
1328;SDS011;658;48.820;9.354;2023-03-14T07:15:52;0.70;;;0.70;;
1328;SDS011;658;48.820;9.354;2023-03-14T07:19:53;1.60;;;0.60;;
1328;SDS011;658;48.820;9.354;2023-03-14T07:23:54;1.20;;;0.73;;
1328;SDS011;658;48.820;9.354;2023-03-14T07:27:54;0.60;;;0.60;;
1328;SDS011;658;48.820;9.354;2023-03-14T07:31:55;1.30;;;0.80;;
1328;SDS011;658;48.820;9.354;2023-03-14T07:35:56;1.63;;;0.77;;
1328;SDS011;658;48.820;9.354;2023-03-14T07:39:56;3.63;;;0.60;;
1328;SDS011;658;48.820;9.354;2023-03-14T07:43:57;1.73;;;0.63;;
1328;SDS011;658;48.820;9.354;2023-03-14T07:47:57;1.93;;;0.63;;
1328;SDS011;658;48.820;9.354;2023-03-14T07:51:58;1.90;;;0.70;;
1328;SDS011;658;48.820;9.354;2023-03-14T07:55:59;1.17;;;0.70;;
1328;SDS011;658;48.820;9.354;2023-03-14T07:59:59;0.80;;;0.40;;
1328;SDS011;658;48.820;9.354;2023-03-14T08:04:00;1.60;;;0.70;;
1328;SDS011;658;48.820;9.354;2023-03-14T08:08:01;0.57;;;0.50;;
1328;SDS011;658;48.820;9.354;2023-03-14T08:12:01;1.10;;;0.60;;
1328;SDS011;658;48.820;9.354;2023-03-14T08:16:02;0.90;;;0.60;;
1328;SDS011;658;48.820;9.354;2023-03-14T08:20:03;1.50;;;0.50;;
1328;SDS011;658;48.820;9.354;2023-03-14T08:24:08;0.63;;;0.50;;
1328;SDS011;658;48.820;9.354;2023-03-14T08:28:09;1.43;;;0.70;;
1328;SDS011;658;48.820;9.354;2023-03-14T08:32:09;0.60;;;0.50;;
1328;SDS011;658;48.820;9.354;2023-03-14T08:36:10;0.97;;;0.67;;
1328;SDS011;658;48.820;9.354;2023-03-14T08:40:11;1.90;;;0.50;;
1328;SDS011;658;48.820;9.354;2023-03-14T08:44:12;1.47;;;0.63;;
1328;SDS011;658;48.820;9.354;2023-03-14T08:48:13;0.80;;;0.60;;
1328;SDS011;658;48.820;9.354;2023-03-14T08:52:13;0.40;;;0.40;;
1328;SDS011;658;48.820;9.354;2023-03-14T08:56:16;1.50;;;0.57;;
1328;SDS011;658;48.820;9.354;2023-03-14T09:00:16;0.80;;;0.73;;
1328;SDS011;658;48.820;9.354;2023-03-14T09:04:18;0.80;;;0.60;;
1328;SDS011;658;48.820;9.354;2023-03-14T09:08:18;0.70;;;0.60;;
1328;SDS011;658;48.820;9.354;2023-03-14T09:12:19;0.70;;;0.63;;
1328;SDS011;658;48.820;9.354;2023-03-14T09:16:20;2.23;;;0.60;;
1328;SDS011;658;48.820;9.354;2023-03-14T09:20:20;0.57;;;0.40;;
1328;SDS011;658;48.820;9.354;2023-03-14T09:24:21;0.63;;;0.50;;
1328;SDS011;658;48.820;9.354;2023-03-14T09:28:22;1.03;;;0.60;;
1328;SDS011;658;48.820;9.354;2023-03-14T09:32:22;1.93;;;0.60;;
1328;SDS011;658;48.820;9.354;2023-03-14T09:36:23;1.43;;;0.50;;
1328;SDS011;658;48.820;9.354;2023-03-14T09:40:24;1.00;;;0.67;;
1328;SDS011;658;48.820;9.354;2023-03-14T09:44:29;0.97;;;0.50;;
1328;SDS011;658;48.820;9.354;2023-03-14T09:48:32;1.13;;;0.60;;
1328;SDS011;658;48.820;9.354;2023-03-14T09:52:38;0.60;;;0.60;;
1328;SDS011;658;48.820;9.354;2023-03-14T09:56:42;0.60;;;0.47;;
1328;SDS011;658;48.820;9.354;2023-03-14T10:00:43;1.70;;;0.47;;
1328;SDS011;658;48.820;9.354;2023-03-14T10:04:45;2.20;;;0.50;;
1328;SDS011;658;48.820;9.354;2023-03-14T10:08:47;0.50;;;0.40;;
1328;SDS011;658;48.820;9.354;2023-03-14T10:12:54;1.40;;;0.50;;
1328;SDS011;658;48.820;9.354;2023-03-14T10:17:10;2.70;;;0.63;;
1328;SDS011;658;48.820;9.354;2023-03-14T10:25:27;0.63;;;0.50;;
1328;SDS011;658;48.820;9.354;2023-03-14T10:29:30;0.77;;;0.40;;
1328;SDS011;658;48.820;9.354;2023-03-14T10:33:33;0.70;;;0.40;;
1328;SDS011;658;48.820;9.354;2023-03-14T10:37:35;0.50;;;0.50;;
1328;SDS011;658;48.820;9.354;2023-03-14T10:42:04;0.40;;;0.40;;
1328;SDS011;658;48.820;9.354;2023-03-14T10:46:14;1.00;;;0.50;;
1328;SDS011;658;48.820;9.354;2023-03-14T10:50:26;0.50;;;0.40;;
1328;SDS011;658;48.820;9.354;2023-03-14T10:54:29;1.40;;;0.47;;
1328;SDS011;658;48.820;9.354;2023-03-14T10:58:31;1.27;;;0.60;;
1328;SDS011;658;48.820;9.354;2023-03-14T11:02:40;2.00;;;0.80;;
1328;SDS011;658;48.820;9.354;2023-03-14T11:06:56;2.63;;;0.83;;
1328;SDS011;658;48.820;9.354;2023-03-14T11:11:19;1.53;;;1.00;;
1328;SDS011;658;48.820;9.354;2023-03-14T11:15:31;1.57;;;0.87;;
1328;SDS011;658;48.820;9.354;2023-03-14T11:19:45;1.23;;;1.00;;
1328;SDS011;658;48.820;9.354;2023-03-14T11:24:13;1.00;;;0.77;;
1328;SDS011;658;48.820;9.354;2023-03-14T11:28:19;0.97;;;0.70;;
1328;SDS011;658;48.820;9.354;2023-03-14T11:36:59;1.03;;;0.80;;
1328;SDS011;658;48.820;9.354;2023-03-14T11:41:04;0.80;;;0.70;;
1328;SDS011;658;48.820;9.354;2023-03-14T11:45:34;1.03;;;0.80;;
1328;SDS011;658;48.820;9.354;2023-03-14T11:49:40;1.20;;;1.10;;
1328;SDS011;658;48.820;9.354;2023-03-14T11:58:33;1.87;;;1.10;;
1328;SDS011;658;48.820;9.354;2023-03-14T12:02:56;4.27;;;1.40;;
1328;SDS011;658;48.820;9.354;2023-03-14T12:07:03;1.43;;;1.20;;
1328;SDS011;658;48.820;9.354;2023-03-14T12:11:14;1.30;;;1.00;;
1328;SDS011;658;48.820;9.354;2023-03-14T12:15:56;1.87;;;1.20;;
1328;SDS011;658;48.820;9.354;2023-03-14T12:20:04;2.07;;;1.20;;
1328;SDS011;658;48.820;9.354;2023-03-14T12:24:20;1.80;;;1.43;;
1328;SDS011;658;48.820;9.354;2023-03-14T12:28:33;2.83;;;1.57;;
1328;SDS011;658;48.820;9.354;2023-03-14T12:32:34;3.43;;;1.60;;
1328;SDS011;658;48.820;9.354;2023-03-14T12:41:13;3.10;;;2.63;;
1328;SDS011;658;48.820;9.354;2023-03-14T12:45:25;3.13;;;2.50;;
1328;SDS011;658;48.820;9.354;2023-03-14T12:49:36;4.90;;;3.30;;
1328;SDS011;658;48.820;9.354;2023-03-14T12:53:55;6.13;;;4.77;;
1328;SDS011;658;48.820;9.354;2023-03-14T12:58:35;5.93;;;4.93;;
1328;SDS011;658;48.820;9.354;2023-03-14T13:03:00;5.70;;;4.57;;
1328;SDS011;658;48.820;9.354;2023-03-14T13:07:35;8.03;;;5.23;;
1328;SDS011;658;48.820;9.354;2023-03-14T13:12:00;9.57;;;4.93;;
1328;SDS011;658;48.820;9.354;2023-03-14T13:16:17;7.87;;;5.80;;
1328;SDS011;658;48.820;9.354;2023-03-14T13:20:28;8.87;;;6.80;;
1328;SDS011;658;48.820;9.354;2023-03-14T13:24:37;9.90;;;7.10;;
1328;SDS011;658;48.820;9.354;2023-03-14T13:28:38;9.10;;;6.40;;
1328;SDS011;658;48.820;9.354;2023-03-14T13:32:40;7.47;;;6.10;;
1328;SDS011;658;48.820;9.354;2023-03-14T13:36:42;9.50;;;6.80;;
1328;SDS011;658;48.820;9.354;2023-03-14T13:40:44;7.53;;;6.50;;
1328;SDS011;658;48.820;9.354;2023-03-14T13:44:45;11.07;;;6.60;;
1328;SDS011;658;48.820;9.354;2023-03-14T13:48:50;6.90;;;5.90;;
1328;SDS011;658;48.820;9.354;2023-03-14T13:52:55;10.00;;;6.63;;
1328;SDS011;658;48.820;9.354;2023-03-14T13:57:04;9.80;;;7.03;;
1328;SDS011;658;48.820;9.354;2023-03-14T14:01:27;8.60;;;6.53;;
1328;SDS011;658;48.820;9.354;2023-03-14T14:05:30;7.47;;;5.93;;
1328;SDS011;658;48.820;9.354;2023-03-14T14:09:39;9.13;;;6.83;;
1328;SDS011;658;48.820;9.354;2023-03-14T14:13:43;9.80;;;6.50;;
1328;SDS011;658;48.820;9.354;2023-03-14T14:17:49;8.87;;;6.53;;
1328;SDS011;658;48.820;9.354;2023-03-14T14:21:53;7.87;;;6.30;;
1328;SDS011;658;48.820;9.354;2023-03-14T14:25:54;8.43;;;6.53;;
1328;SDS011;658;48.820;9.354;2023-03-14T14:30:05;10.67;;;6.97;;
1328;SDS011;658;48.820;9.354;2023-03-14T14:34:26;9.87;;;6.63;;
1328;SDS011;658;48.820;9.354;2023-03-14T14:38:27;7.13;;;6.10;;
1328;SDS011;658;48.820;9.354;2023-03-14T14:42:30;10.90;;;6.13;;
1328;SDS011;658;48.820;9.354;2023-03-14T14:46:32;7.50;;;6.73;;
1328;SDS011;658;48.820;9.354;2023-03-14T14:50:43;6.83;;;5.73;;
1328;SDS011;658;48.820;9.354;2023-03-14T14:54:58;6.87;;;6.10;;
1328;SDS011;658;48.820;9.354;2023-03-14T14:59:00;8.40;;;5.53;;
1328;SDS011;658;48.820;9.354;2023-03-14T15:03:05;8.40;;;5.77;;
1328;SDS011;658;48.820;9.354;2023-03-14T15:07:10;7.90;;;6.60;;
1328;SDS011;658;48.820;9.354;2023-03-14T15:11:18;8.00;;;6.27;;
1328;SDS011;658;48.820;9.354;2023-03-14T15:15:20;7.73;;;5.70;;
1328;SDS011;658;48.820;9.354;2023-03-14T15:19:22;6.93;;;6.07;;
1328;SDS011;658;48.820;9.354;2023-03-14T15:23:26;11.30;;;6.50;;
1328;SDS011;658;48.820;9.354;2023-03-14T15:27:26;8.60;;;6.03;;
1328;SDS011;658;48.820;9.354;2023-03-14T15:31:30;9.43;;;5.80;;
1328;SDS011;658;48.820;9.354;2023-03-14T15:35:30;10.13;;;6.10;;
1328;SDS011;658;48.820;9.354;2023-03-14T15:39:31;12.33;;;7.10;;
1328;SDS011;658;48.820;9.354;2023-03-14T15:43:31;10.00;;;6.90;;
1328;SDS011;658;48.820;9.354;2023-03-14T15:47:32;8.63;;;6.33;;
1328;SDS011;658;48.820;9.354;2023-03-14T15:51:33;5.43;;;4.80;;
1328;SDS011;658;48.820;9.354;2023-03-14T15:55:33;9.97;;;5.50;;
1328;SDS011;658;48.820;9.354;2023-03-14T15:59:34;9.40;;;5.67;;
1328;SDS011;658;48.820;9.354;2023-03-14T16:03:35;7.17;;;5.70;;
1328;SDS011;658;48.820;9.354;2023-03-14T16:07:36;6.17;;;5.53;;
1328;SDS011;658;48.820;9.354;2023-03-14T16:11:37;8.33;;;6.03;;
1328;SDS011;658;48.820;9.354;2023-03-14T16:15:38;7.40;;;5.30;;
1328;SDS011;658;48.820;9.354;2023-03-14T16:19:38;6.80;;;5.13;;
1328;SDS011;658;48.820;9.354;2023-03-14T16:23:39;6.97;;;5.20;;
1328;SDS011;658;48.820;9.354;2023-03-14T16:27:40;5.93;;;5.10;;
1328;SDS011;658;48.820;9.354;2023-03-14T16:31:41;6.13;;;4.83;;
1328;SDS011;658;48.820;9.354;2023-03-14T16:35:52;7.73;;;5.20;;
1328;SDS011;658;48.820;9.354;2023-03-14T16:39:54;5.23;;;4.10;;
1328;SDS011;658;48.820;9.354;2023-03-14T16:43:54;8.30;;;4.83;;
1328;SDS011;658;48.820;9.354;2023-03-14T16:47:55;5.63;;;4.50;;
1328;SDS011;658;48.820;9.354;2023-03-14T16:51:56;4.53;;;4.13;;
1328;SDS011;658;48.820;9.354;2023-03-14T16:55:57;7.30;;;4.83;;
1328;SDS011;658;48.820;9.354;2023-03-14T16:59:58;5.20;;;4.70;;
1328;SDS011;658;48.820;9.354;2023-03-14T17:03:59;5.90;;;4.20;;
1328;SDS011;658;48.820;9.354;2023-03-14T17:07:59;5.77;;;4.03;;
1328;SDS011;658;48.820;9.354;2023-03-14T17:12:00;4.63;;;3.87;;
1328;SDS011;658;48.820;9.354;2023-03-14T17:16:01;5.20;;;3.93;;
1328;SDS011;658;48.820;9.354;2023-03-14T17:20:02;5.30;;;4.00;;
1328;SDS011;658;48.820;9.354;2023-03-14T17:24:04;5.20;;;3.60;;
1328;SDS011;658;48.820;9.354;2023-03-14T17:28:05;5.13;;;3.50;;
1328;SDS011;658;48.820;9.354;2023-03-14T17:32:06;5.23;;;3.90;;
1328;SDS011;658;48.820;9.354;2023-03-14T17:36:07;6.10;;;3.80;;
1328;SDS011;658;48.820;9.354;2023-03-14T17:40:08;4.60;;;3.60;;
1328;SDS011;658;48.820;9.354;2023-03-14T17:44:09;4.50;;;3.10;;
1328;SDS011;658;48.820;9.354;2023-03-14T17:48:10;4.57;;;3.23;;
1328;SDS011;658;48.820;9.354;2023-03-14T17:52:11;4.80;;;3.33;;
1328;SDS011;658;48.820;9.354;2023-03-14T17:56:12;4.10;;;3.33;;
1328;SDS011;658;48.820;9.354;2023-03-14T18:00:13;3.37;;;2.87;;
1328;SDS011;658;48.820;9.354;2023-03-14T18:04:14;3.63;;;3.27;;
1328;SDS011;658;48.820;9.354;2023-03-14T18:08:16;4.60;;;2.80;;
1328;SDS011;658;48.820;9.354;2023-03-14T18:12:16;3.20;;;2.80;;
1328;SDS011;658;48.820;9.354;2023-03-14T18:16:17;3.20;;;2.90;;
1328;SDS011;658;48.820;9.354;2023-03-14T18:20:18;3.53;;;3.20;;
1328;SDS011;658;48.820;9.354;2023-03-14T18:24:19;3.83;;;2.97;;
1328;SDS011;658;48.820;9.354;2023-03-14T18:28:20;3.00;;;2.70;;
1328;SDS011;658;48.820;9.354;2023-03-14T18:32:22;2.53;;;2.07;;
1328;SDS011;658;48.820;9.354;2023-03-14T18:36:22;2.57;;;2.37;;
1328;SDS011;658;48.820;9.354;2023-03-14T18:40:23;3.30;;;2.50;;
1328;SDS011;658;48.820;9.354;2023-03-14T18:44:24;3.40;;;2.37;;
1328;SDS011;658;48.820;9.354;2023-03-14T18:48:24;3.37;;;2.53;;
1328;SDS011;658;48.820;9.354;2023-03-14T18:52:25;3.30;;;2.23;;
1328;SDS011;658;48.820;9.354;2023-03-14T18:56:27;2.70;;;2.43;;
1328;SDS011;658;48.820;9.354;2023-03-14T19:00:28;2.50;;;2.30;;
1328;SDS011;658;48.820;9.354;2023-03-14T19:04:29;2.53;;;2.30;;
1328;SDS011;658;48.820;9.354;2023-03-14T19:08:30;2.03;;;1.90;;
1328;SDS011;658;48.820;9.354;2023-03-14T19:12:33;2.30;;;2.10;;
1328;SDS011;658;48.820;9.354;2023-03-14T19:16:34;2.90;;;2.20;;
1328;SDS011;658;48.820;9.354;2023-03-14T19:20:35;2.93;;;2.43;;
1328;SDS011;658;48.820;9.354;2023-03-14T19:24:36;2.63;;;1.83;;
1328;SDS011;658;48.820;9.354;2023-03-14T19:28:37;2.37;;;1.90;;
1328;SDS011;658;48.820;9.354;2023-03-14T19:32:38;2.30;;;2.10;;
1328;SDS011;658;48.820;9.354;2023-03-14T19:36:38;3.00;;;2.00;;
1328;SDS011;658;48.820;9.354;2023-03-14T19:40:40;2.10;;;1.87;;
1328;SDS011;658;48.820;9.354;2023-03-14T19:44:42;2.10;;;1.90;;
1328;SDS011;658;48.820;9.354;2023-03-14T19:48:42;2.10;;;1.90;;
1328;SDS011;658;48.820;9.354;2023-03-14T19:52:44;2.00;;;1.80;;
1328;SDS011;658;48.820;9.354;2023-03-14T19:56:46;1.97;;;1.73;;
1328;SDS011;658;48.820;9.354;2023-03-14T20:00:48;2.13;;;1.60;;
1328;SDS011;658;48.820;9.354;2023-03-14T20:04:48;2.13;;;1.30;;
1328;SDS011;658;48.820;9.354;2023-03-14T20:08:53;2.10;;;1.80;;
1328;SDS011;658;48.820;9.354;2023-03-14T20:12:53;2.10;;;1.90;;
1328;SDS011;658;48.820;9.354;2023-03-14T20:16:54;1.63;;;1.53;;
1328;SDS011;658;48.820;9.354;2023-03-14T20:20:55;1.90;;;1.60;;
1328;SDS011;658;48.820;9.354;2023-03-14T20:24:55;1.20;;;1.10;;
1328;SDS011;658;48.820;9.354;2023-03-14T20:28:56;1.87;;;1.63;;
1328;SDS011;658;48.820;9.354;2023-03-14T20:32:57;1.40;;;1.20;;
1328;SDS011;658;48.820;9.354;2023-03-14T20:36:57;1.40;;;1.27;;
1328;SDS011;658;48.820;9.354;2023-03-14T20:40:58;1.63;;;1.13;;
1328;SDS011;658;48.820;9.354;2023-03-14T20:44:59;1.40;;;1.30;;
1328;SDS011;658;48.820;9.354;2023-03-14T20:49:00;1.43;;;1.03;;
1328;SDS011;658;48.820;9.354;2023-03-14T20:53:01;1.30;;;1.10;;
1328;SDS011;658;48.820;9.354;2023-03-14T20:57:02;1.30;;;1.20;;
1328;SDS011;658;48.820;9.354;2023-03-14T21:01:03;1.70;;;1.37;;
1328;SDS011;658;48.820;9.354;2023-03-14T21:05:03;1.20;;;0.97;;
1328;SDS011;658;48.820;9.354;2023-03-14T21:09:05;2.17;;;1.37;;
1328;SDS011;658;48.820;9.354;2023-03-14T21:13:05;2.63;;;1.27;;
1328;SDS011;658;48.820;9.354;2023-03-14T21:17:06;1.13;;;1.03;;
1328;SDS011;658;48.820;9.354;2023-03-14T21:21:07;1.30;;;1.20;;
1328;SDS011;658;48.820;9.354;2023-03-14T21:25:08;1.17;;;1.07;;
1328;SDS011;658;48.820;9.354;2023-03-14T21:29:08;2.13;;;1.30;;
1328;SDS011;658;48.820;9.354;2023-03-14T21:33:09;1.00;;;1.00;;
1328;SDS011;658;48.820;9.354;2023-03-14T21:37:10;2.00;;;1.40;;
1328;SDS011;658;48.820;9.354;2023-03-14T21:41:10;2.67;;;1.50;;
1328;SDS011;658;48.820;9.354;2023-03-14T21:45:13;3.30;;;1.20;;
1328;SDS011;658;48.820;9.354;2023-03-14T21:49:15;5.30;;;1.20;;
1328;SDS011;658;48.820;9.354;2023-03-14T21:53:17;1.40;;;1.30;;
1328;SDS011;658;48.820;9.354;2023-03-14T21:57:18;1.50;;;1.40;;
1328;SDS011;658;48.820;9.354;2023-03-14T22:01:18;1.20;;;1.00;;
1328;SDS011;658;48.820;9.354;2023-03-14T22:05:21;2.87;;;1.20;;
1328;SDS011;658;48.820;9.354;2023-03-14T22:09:22;1.20;;;1.10;;
1328;SDS011;658;48.820;9.354;2023-03-14T22:13:23;1.27;;;1.10;;
1328;SDS011;658;48.820;9.354;2023-03-14T22:17:24;2.07;;;1.87;;
1328;SDS011;658;48.820;9.354;2023-03-14T22:21:25;3.17;;;2.10;;
1328;SDS011;658;48.820;9.354;2023-03-14T22:25:25;2.80;;;2.00;;
1328;SDS011;658;48.820;9.354;2023-03-14T22:29:26;3.93;;;2.10;;
1328;SDS011;658;48.820;9.354;2023-03-14T22:33:27;5.70;;;3.17;;
1328;SDS011;658;48.820;9.354;2023-03-14T22:37:30;3.17;;;2.27;;
1328;SDS011;658;48.820;9.354;2023-03-14T22:41:31;4.13;;;2.97;;
1328;SDS011;658;48.820;9.354;2023-03-14T22:45:32;3.30;;;2.80;;
1328;SDS011;658;48.820;9.354;2023-03-14T22:49:33;5.53;;;3.87;;
1328;SDS011;658;48.820;9.354;2023-03-14T22:53:33;9.43;;;7.23;;
1328;SDS011;658;48.820;9.354;2023-03-14T22:57:34;9.60;;;7.10;;
1328;SDS011;658;48.820;9.354;2023-03-14T23:01:36;11.37;;;7.60;;
1328;SDS011;658;48.820;9.354;2023-03-14T23:05:36;8.50;;;6.63;;
1328;SDS011;658;48.820;9.354;2023-03-14T23:09:38;10.13;;;7.73;;
1328;SDS011;658;48.820;9.354;2023-03-14T23:13:40;10.13;;;7.77;;
1328;SDS011;658;48.820;9.354;2023-03-14T23:17:41;11.60;;;8.40;;
1328;SDS011;658;48.820;9.354;2023-03-14T23:21:43;12.10;;;9.47;;
1328;SDS011;658;48.820;9.354;2023-03-14T23:25:43;11.03;;;8.33;;
1328;SDS011;658;48.820;9.354;2023-03-14T23:29:44;10.83;;;8.50;;
1328;SDS011;658;48.820;9.354;2023-03-14T23:33:45;10.90;;;8.63;;
1328;SDS011;658;48.820;9.354;2023-03-14T23:37:46;12.63;;;8.80;;
1328;SDS011;658;48.820;9.354;2023-03-14T23:41:47;11.57;;;8.60;;
1328;SDS011;658;48.820;9.354;2023-03-14T23:45:48;12.60;;;8.20;;
1328;SDS011;658;48.820;9.354;2023-03-14T23:49:53;10.67;;;8.40;;
1328;SDS011;658;48.820;9.354;2023-03-14T23:53:54;9.67;;;8.20;;
1328;SDS011;658;48.820;9.354;2023-03-14T23:57:55;13.57;;;8.90;;
